createdAt,value
2023-05-01T00:02:00.176Z,101148.69
2023-05-01T00:04:28.587Z,101162.63
2023-05-01T00:06:56.839Z,101157.44
2023-05-01T00:09:25.041Z,101149.44
2023-05-01T00:11:53.223Z,101150.63
2023-05-01T00:14:21.541Z,101155.84
2023-05-01T00:16:49.876Z,101150.13
2023-05-01T00:19:19.811Z,101147.91
2023-05-01T00:21:49.232Z,101166.03
2023-05-01T00:24:17.881Z,101169.34
2023-05-01T00:26:47.103Z,101168.91
2023-05-01T00:29:15.406Z,101165.81
2023-05-01T00:31:43.887Z,101164.75
2023-05-01T00:34:12.606Z,101172.44
2023-05-01T00:36:40.877Z,101160.94
2023-05-01T00:39:09.391Z,101167.91
2023-05-01T00:41:37.687Z,101170.00
2023-05-01T00:44:06.181Z,101171.50
2023-05-01T00:46:36.054Z,101174.69
2023-05-01T00:49:05.502Z,101168.78
2023-05-01T00:51:35.002Z,101172.72
2023-05-01T00:54:04.223Z,101180.88
2023-05-01T00:56:33.002Z,101176.25
2023-05-01T00:59:01.768Z,101178.59
2023-05-01T01:01:30.458Z,101161.16
2023-05-01T01:03:58.737Z,101170.31
2023-05-01T01:06:52.963Z,101170.59
2023-05-01T01:09:51.744Z,101170.97
2023-05-01T01:12:22.884Z,101170.72
2023-05-01T01:15:18.293Z,101170.50
2023-05-01T01:18:00.921Z,101175.34
2023-05-01T01:20:54.294Z,101170.72
2023-05-01T01:23:40.996Z,101166.38
2023-05-01T01:26:23.974Z,101168.41
2023-05-01T01:29:37.396Z,101173.88
2023-05-01T01:32:12.371Z,101170.66
2023-05-01T01:34:51.476Z,101163.03
2023-05-01T01:37:25.991Z,101165.25
2023-05-01T01:40:20.075Z,101155.91
2023-05-01T01:43:14.380Z,101160.44
2023-05-01T01:45:55.728Z,101162.19
2023-05-01T01:48:30.171Z,101157.56
2023-05-01T01:51:00.596Z,101153.50
2023-05-01T01:53:32.202Z,101154.34
2023-05-01T01:56:03.865Z,101153.38
2023-05-01T01:58:34.217Z,101141.78
2023-05-01T02:01:04.866Z,101145.41
2023-05-01T02:03:34.893Z,101144.88
2023-05-01T02:06:05.633Z,101146.19
2023-05-01T02:08:35.731Z,101140.41
2023-05-01T02:11:04.747Z,101144.81
2023-05-01T02:13:34.975Z,101151.81
2023-05-01T02:16:04.902Z,101148.34
2023-05-01T02:18:34.128Z,101149.47
2023-05-01T02:21:04.510Z,101143.75
2023-05-01T02:23:34.430Z,101140.59
2023-05-01T02:26:05.144Z,101147.72
2023-05-01T02:28:35.122Z,101139.13
2023-05-01T02:31:03.380Z,101145.78
2023-05-01T02:33:31.722Z,101143.69
2023-05-01T02:35:59.862Z,101144.84
2023-05-01T02:38:28.355Z,101147.84
2023-05-01T02:40:59.370Z,101146.47
2023-05-01T02:43:29.900Z,101146.03
2023-05-01T02:46:00.750Z,101136.75
2023-05-01T02:48:31.566Z,101134.66
2023-05-01T02:51:02.155Z,101140.22
2023-05-01T02:53:31.461Z,101139.41
2023-05-01T02:56:00.185Z,101141.22
2023-05-01T02:58:31.985Z,101132.59
2023-05-01T03:01:00.215Z,101139.28
2023-05-01T03:03:31.792Z,101133.47
2023-05-01T03:06:00.826Z,101138.13
2023-05-01T03:08:29.011Z,101138.97
2023-05-01T03:10:57.220Z,101142.78
2023-05-01T03:13:25.676Z,101136.59
2023-05-01T03:15:53.909Z,101139.91
2023-05-01T03:18:22.122Z,101140.94
2023-05-01T03:20:57.790Z,101140.06
2023-05-01T03:23:26.992Z,101133.97
2023-05-01T03:25:55.618Z,101136.84
2023-05-01T03:28:24.453Z,101143.19
2023-05-01T03:30:53.526Z,101133.56
2023-05-01T03:33:21.868Z,101136.22
2023-05-01T03:35:50.309Z,101138.19
2023-05-01T03:38:18.471Z,101139.25
2023-05-01T03:40:46.864Z,101138.59
2023-05-01T03:43:14.996Z,101137.72
2023-05-01T03:45:44.804Z,101138.59
2023-05-01T03:48:14.614Z,101136.84
2023-05-01T03:50:43.139Z,101133.31
2023-05-01T03:53:11.454Z,101134.16
2023-05-01T03:55:39.642Z,101132.41
2023-05-01T03:58:08.266Z,101136.13
2023-05-01T04:00:36.409Z,101139.91
2023-05-01T04:03:05.591Z,101133.91
2023-05-01T04:05:34.434Z,101139.28
2023-05-01T04:08:02.835Z,101142.91
2023-05-01T04:10:31.742Z,101142.28
2023-05-01T04:12:59.883Z,101146.88
2023-05-01T04:15:28.087Z,101144.25
2023-05-01T04:17:57.639Z,101152.16
2023-05-01T04:20:25.814Z,101153.16
2023-05-01T04:22:54.000Z,101151.38
2023-05-01T04:25:22.282Z,101161.06
2023-05-01T04:27:50.482Z,101156.72
2023-05-01T04:30:19.025Z,101148.78
2023-05-01T04:32:47.559Z,101156.75
2023-05-01T04:35:15.805Z,101151.44
2023-05-01T04:37:43.938Z,101153.22
2023-05-01T04:40:12.874Z,101143.59
2023-05-01T04:42:41.450Z,101149.69
2023-05-01T04:45:09.965Z,101155.94
2023-05-01T04:47:38.201Z,101152.56
2023-05-01T04:50:07.099Z,101156.94
2023-05-01T04:52:36.462Z,101164.13
2023-05-01T04:55:04.803Z,101157.09
2023-05-01T04:57:33.079Z,101157.22
2023-05-01T05:00:01.239Z,101156.41
2023-05-01T05:02:29.501Z,101158.22
2023-05-01T05:04:58.453Z,101160.00
2023-05-01T05:07:26.610Z,101156.44
2023-05-01T05:09:55.069Z,101163.53
2023-05-01T05:12:23.538Z,101168.91
2023-05-01T05:14:51.685Z,101156.63
2023-05-01T05:17:19.807Z,101162.81
2023-05-01T05:19:48.244Z,101146.00
2023-05-01T05:22:16.501Z,101151.13
2023-05-01T05:24:45.436Z,101156.31
2023-05-01T05:27:13.610Z,101164.38
2023-05-01T05:29:41.776Z,101159.00
2023-05-01T05:32:09.977Z,101159.88
2023-05-01T05:34:38.252Z,101157.16
2023-05-01T05:37:06.553Z,101154.34
2023-05-01T05:39:34.693Z,101157.00
2023-05-01T05:42:04.511Z,101158.75
2023-05-01T05:44:33.843Z,101157.75
2023-05-01T05:47:01.970Z,101159.38
2023-05-01T05:49:30.148Z,101161.25
2023-05-01T05:51:58.330Z,101160.44
2023-05-01T05:54:26.444Z,101156.91
2023-05-01T05:56:54.633Z,101161.25
2023-05-01T05:59:22.755Z,101158.66
2023-05-01T06:01:50.914Z,101150.81
2023-05-01T06:04:19.098Z,101150.00
2023-05-01T06:06:48.202Z,101152.63
2023-05-01T06:09:18.041Z,101148.03
2023-05-01T06:11:47.131Z,101146.25
2023-05-01T06:14:16.095Z,101148.03
2023-05-01T06:16:44.394Z,101156.16
2023-05-01T06:19:13.059Z,101149.06
2023-05-01T06:21:41.238Z,101146.31
2023-05-01T06:24:09.392Z,101143.72
2023-05-01T06:26:37.550Z,101138.50
2023-05-01T06:29:05.745Z,101142.00
2023-05-01T06:31:34.023Z,101133.22
2023-05-01T06:34:02.247Z,101126.19
2023-05-01T06:36:30.389Z,101130.53
2023-05-01T06:38:58.603Z,101129.59
2023-05-01T06:41:27.627Z,101136.69
2023-05-01T06:43:55.886Z,101137.81
2023-05-01T06:46:24.146Z,101142.28
2023-05-01T06:48:52.290Z,101131.78
2023-05-01T06:51:20.450Z,101129.19
2023-05-01T06:53:48.639Z,101129.19
2023-05-01T06:56:16.761Z,101126.63
2023-05-01T06:58:44.895Z,101125.75
2023-05-01T07:01:13.338Z,101122.16
2023-05-01T07:03:41.568Z,101118.50
2023-05-01T07:06:09.790Z,101118.50
2023-05-01T07:08:37.956Z,101120.31
2023-05-01T07:11:06.312Z,101114.19
2023-05-01T07:13:34.530Z,101116.94
2023-05-01T07:16:03.226Z,101114.25
2023-05-01T07:18:31.530Z,101114.25
2023-05-01T07:20:59.636Z,101115.13
2023-05-01T07:23:28.000Z,101110.53
2023-05-01T07:25:56.784Z,101112.25
2023-05-01T07:28:24.967Z,101113.03
2023-05-01T07:30:53.202Z,101118.31
2023-05-01T07:33:21.439Z,101111.13
2023-05-01T07:35:49.703Z,101111.84
2023-05-01T07:38:18.883Z,101103.09
2023-05-01T07:40:47.473Z,101105.94
2023-05-01T07:43:15.654Z,101106.22
2023-05-01T07:45:44.091Z,101106.41
2023-05-01T07:48:12.431Z,101102.09
2023-05-01T07:50:40.655Z,101095.94
2023-05-01T07:53:08.926Z,101095.03
2023-05-01T07:55:37.078Z,101095.88
2023-05-01T07:58:05.216Z,101086.97
2023-05-01T08:00:33.404Z,101097.53
2023-05-01T08:03:01.600Z,101086.91
2023-05-01T08:05:29.869Z,101086.91
2023-05-01T08:07:58.066Z,101085.97
2023-05-01T08:10:26.881Z,101082.31
2023-05-01T08:12:55.027Z,101078.66
2023-05-01T08:15:23.169Z,101067.97
2023-05-01T08:17:52.241Z,101059.19
2023-05-01T08:20:20.511Z,101061.72
2023-05-01T08:22:48.754Z,101057.41
2023-05-01T08:25:16.946Z,101050.38
2023-05-01T08:27:45.266Z,101050.38
2023-05-01T08:30:13.848Z,101045.91
2023-05-01T08:32:42.034Z,101047.66
2023-05-01T08:35:10.567Z,101046.84
2023-05-01T08:37:39.156Z,101044.19
2023-05-01T08:40:09.806Z,101037.22
2023-05-01T08:42:40.723Z,101034.66
2023-05-01T08:45:12.682Z,101042.53
2023-05-01T08:47:41.681Z,101039.81
2023-05-01T08:50:14.832Z,101031.00
2023-05-01T08:52:43.923Z,101033.66
2023-05-01T08:55:15.444Z,101031.91
2023-05-01T08:57:47.941Z,101025.69
2023-05-01T09:00:21.354Z,101025.75
2023-05-01T09:02:51.781Z,101023.19
2023-05-01T09:05:21.721Z,101008.97
2023-05-01T09:07:50.216Z,101016.84
2023-05-01T09:10:19.864Z,101010.81
2023-05-01T09:12:59.315Z,101013.47
2023-05-01T09:15:28.725Z,101008.22
2023-05-01T09:17:59.645Z,100999.44
2023-05-01T09:20:30.162Z,100992.22
2023-05-01T09:22:58.608Z,100996.41
2023-05-01T09:25:27.079Z,100996.31
2023-05-01T09:27:57.228Z,100986.56
2023-05-01T09:30:37.359Z,100991.88
2023-05-01T09:33:13.316Z,100993.59
2023-05-01T09:35:59.866Z,100989.22
2023-05-01T09:38:30.079Z,100987.34
2023-05-01T09:41:05.737Z,100984.69
2023-05-01T09:43:33.946Z,100985.63
2023-05-01T09:46:10.921Z,100981.47
2023-05-01T09:48:39.780Z,100978.09
2023-05-01T09:51:31.167Z,100970.19
2023-05-01T09:54:00.874Z,100968.47
2023-05-01T09:56:30.346Z,100970.13
2023-05-01T09:59:15.111Z,100959.34
2023-05-01T10:01:45.097Z,100962.94
2023-05-01T10:04:14.091Z,100965.53
2023-05-01T10:06:42.913Z,100963.09
2023-05-01T10:09:29.144Z,100965.94
2023-05-01T10:11:58.222Z,100959.00
2023-05-01T10:14:27.645Z,100962.44
2023-05-01T10:16:57.586Z,100963.31
2023-05-01T10:19:26.033Z,100962.22
2023-05-01T10:21:54.496Z,100955.91
2023-05-01T10:24:23.420Z,100958.56
2023-05-01T10:26:52.861Z,100952.38
2023-05-01T10:29:24.578Z,100951.59
2023-05-01T10:31:53.076Z,100944.56
2023-05-01T10:34:26.218Z,100951.44
2023-05-01T10:37:14.105Z,100952.25
2023-05-01T10:39:42.400Z,100946.91
2023-05-01T10:42:15.724Z,100947.78
2023-05-01T10:44:44.481Z,100947.78
2023-05-01T10:47:35.410Z,100947.94
2023-05-01T10:50:10.586Z,100947.97
2023-05-01T10:53:13.787Z,100949.91
2023-05-01T10:55:47.129Z,100944.78
2023-05-01T10:58:35.751Z,100944.84
2023-05-01T11:01:35.831Z,100951.06
2023-05-01T11:04:08.681Z,100941.41
2023-05-01T11:06:38.790Z,100938.03
2023-05-01T11:09:38.922Z,100939.84
2023-05-01T11:12:08.371Z,100937.19
2023-05-01T11:14:55.121Z,100939.78
2023-05-01T11:17:42.185Z,100936.09
2023-05-01T11:20:39.483Z,100937.69
2023-05-01T11:23:08.523Z,100935.88
2023-05-01T11:25:36.663Z,100935.13
2023-05-01T11:28:07.448Z,100936.97
2023-05-01T11:30:42.002Z,100934.38
2023-05-01T11:33:11.104Z,100942.38
2023-05-01T11:35:40.059Z,100937.03
2023-05-01T11:38:17.332Z,100935.28
2023-05-01T11:40:46.307Z,100933.41
2023-05-01T11:43:14.717Z,100943.06
2023-05-01T11:45:42.961Z,100939.56
2023-05-01T11:48:17.354Z,100940.56
2023-05-01T11:50:45.851Z,100935.19
2023-05-01T11:53:19.430Z,100927.00
2023-05-01T11:55:48.045Z,100933.97
2023-05-01T11:58:16.205Z,100925.84
2023-05-01T12:00:45.071Z,100935.41
2023-05-01T12:03:15.532Z,100940.75
2023-05-01T12:05:45.737Z,100932.16
2023-05-01T12:08:21.782Z,100935.81
2023-05-01T12:10:56.974Z,100931.44
2023-05-01T12:13:26.149Z,100935.81
2023-05-01T12:15:56.380Z,100920.75
2023-05-01T12:18:24.820Z,100932.94
2023-05-01T12:20:56.208Z,100916.22
2023-05-01T12:23:35.889Z,100930.38
2023-05-01T12:26:20.856Z,100918.03
2023-05-01T12:29:01.742Z,100922.53
2023-05-01T12:31:31.005Z,100926.91
2023-05-01T12:34:01.659Z,100919.72
2023-05-01T12:36:32.468Z,100918.75
2023-05-01T12:39:12.695Z,100914.34
2023-05-01T12:41:46.228Z,100910.94
2023-05-01T12:44:28.531Z,100918.81
2023-05-01T12:47:04.744Z,100916.81
2023-05-01T12:49:33.551Z,100913.19
2023-05-01T12:52:02.794Z,100918.66
2023-05-01T12:54:34.772Z,100912.88
2023-05-01T12:57:15.651Z,100910.63
2023-05-01T12:59:47.895Z,100909.84
2023-05-01T13:02:18.697Z,100907.34
2023-05-01T13:04:50.009Z,100905.56
2023-05-01T13:07:20.036Z,100909.91
2023-05-01T13:09:54.734Z,100910.06
2023-05-01T13:12:23.673Z,100918.91
2023-05-01T13:14:52.525Z,100906.69
2023-05-01T13:17:28.814Z,100911.06
2023-05-01T13:19:58.867Z,100920.81
2023-05-01T13:22:38.147Z,100918.91
2023-05-01T13:25:16.863Z,100920.75
2023-05-01T13:27:55.178Z,100923.34
2023-05-01T13:30:34.365Z,100925.13
2023-05-01T13:33:02.739Z,100926.84
2023-05-01T13:35:31.821Z,100922.31
2023-05-01T13:37:59.947Z,100923.94
2023-05-01T13:40:29.018Z,100928.38
2023-05-01T13:42:57.450Z,100924.91
2023-05-01T13:45:27.303Z,100930.44
2023-05-01T13:47:56.163Z,100935.91
2023-05-01T13:50:24.440Z,100934.22
2023-05-01T13:52:52.717Z,100937.81
2023-05-01T13:55:22.779Z,100931.59
2023-05-01T13:57:51.459Z,100929.72
2023-05-01T14:00:20.337Z,100933.22
2023-05-01T14:02:50.148Z,100927.72
2023-05-01T14:05:25.829Z,100930.16
2023-05-01T14:07:56.344Z,100932.59
2023-05-01T14:10:28.170Z,100928.94
2023-05-01T14:13:00.290Z,100929.63
2023-05-01T14:15:29.674Z,100928.66
2023-05-01T14:17:59.679Z,100934.81
2023-05-01T14:20:28.289Z,100926.84
2023-05-01T14:22:56.481Z,100933.78
2023-05-01T14:25:26.041Z,100932.72
2023-05-01T14:27:55.801Z,100933.44
2023-05-01T14:30:34.296Z,100930.56
2023-05-01T14:33:04.367Z,100934.78
2023-05-01T14:35:32.733Z,100934.59
2023-05-01T14:38:14.524Z,100939.75
2023-05-01T14:40:43.721Z,100933.41
2023-05-01T14:43:18.687Z,100937.75
2023-05-01T14:45:49.984Z,100942.06
2023-05-01T14:48:26.281Z,100944.59
2023-05-01T14:50:55.630Z,100940.09
2023-05-01T14:53:24.144Z,100940.16
2023-05-01T14:55:53.189Z,100941.88
2023-05-01T14:58:21.535Z,100940.00
2023-05-01T15:00:49.769Z,100938.19
2023-05-01T15:03:18.255Z,100945.13
2023-05-01T15:05:47.162Z,100947.78
2023-05-01T15:08:15.381Z,100951.25
2023-05-01T15:10:44.389Z,100950.47
2023-05-01T15:13:12.646Z,100956.72
2023-05-01T15:15:41.020Z,100961.06
2023-05-01T15:18:09.358Z,100958.28
2023-05-01T15:20:38.428Z,100968.13
2023-05-01T15:23:06.625Z,100957.56
2023-05-01T15:25:34.839Z,100962.88
2023-05-01T15:28:04.111Z,100966.53
2023-05-01T15:30:33.067Z,100952.25
2023-05-01T15:33:01.397Z,100957.34
2023-05-01T15:35:31.912Z,100958.09
2023-05-01T15:38:00.112Z,100949.09
2023-05-01T15:40:28.351Z,100950.50
2023-05-01T15:42:56.728Z,100956.53
2023-05-01T15:45:25.236Z,100961.88
2023-05-01T15:47:53.606Z,100949.25
2023-05-01T15:50:22.225Z,100950.72
2023-05-01T15:52:50.969Z,100954.75
2023-05-01T15:55:19.879Z,100956.31
2023-05-01T15:57:49.483Z,100957.78
2023-05-01T16:00:18.050Z,100956.59
2023-05-01T16:02:46.372Z,100949.38
2023-05-01T16:05:20.156Z,100949.31
2023-05-01T16:07:54.549Z,100953.66
2023-05-01T16:10:23.308Z,100958.03
2023-05-01T16:12:52.049Z,100961.81
2023-05-01T16:15:20.289Z,100957.72
2023-05-01T16:17:50.532Z,100959.56
2023-05-01T16:20:19.096Z,100957.94
2023-05-01T16:22:47.868Z,100958.97
2023-05-01T16:25:16.208Z,100962.75
2023-05-01T16:27:48.273Z,100972.63
2023-05-01T16:30:16.685Z,100964.81
2023-05-01T16:32:46.856Z,100966.66
2023-05-01T16:35:19.226Z,100964.97
2023-05-01T16:37:47.728Z,100969.44
2023-05-01T16:40:19.836Z,100977.56
2023-05-01T16:42:56.973Z,100979.59
2023-05-01T16:45:25.308Z,100984.47
2023-05-01T16:47:53.565Z,100982.19
2023-05-01T16:50:23.499Z,100981.50
2023-05-01T16:52:53.332Z,100972.50
2023-05-01T16:55:21.953Z,100980.06
2023-05-01T16:57:50.236Z,100967.97
2023-05-01T17:00:19.215Z,100971.91
2023-05-01T17:02:50.523Z,100961.75
2023-05-01T17:05:18.944Z,100964.91
2023-05-01T17:07:47.488Z,100959.91
2023-05-01T17:10:15.740Z,100953.22
2023-05-01T17:12:44.622Z,100953.91
2023-05-01T17:15:13.316Z,100955.31
2023-05-01T17:17:41.578Z,100956.88
2023-05-01T17:20:10.833Z,100960.22
2023-05-01T17:22:39.087Z,100955.47
2023-05-01T17:25:07.920Z,100958.59
2023-05-01T17:27:36.094Z,100950.16
2023-05-01T17:30:05.603Z,100954.31
2023-05-01T17:32:37.413Z,100947.97
2023-05-01T17:35:07.152Z,100939.88
2023-05-01T17:37:35.441Z,100948.91
2023-05-01T17:40:04.874Z,100949.41
2023-05-01T17:42:33.114Z,100950.41
2023-05-01T17:45:01.320Z,100943.03
2023-05-01T17:47:29.559Z,100949.66
2023-05-01T17:49:58.167Z,100957.25
2023-05-01T17:52:26.764Z,100944.78
2023-05-01T17:54:54.981Z,100943.09
2023-05-01T17:57:23.265Z,100947.31
2023-05-01T17:59:51.850Z,100940.38
2023-05-01T18:02:20.131Z,100950.88
2023-05-01T18:04:50.978Z,100934.94
2023-05-01T18:07:19.149Z,100928.63
2023-05-01T18:09:47.680Z,100937.88
2023-05-01T18:12:15.915Z,100938.44
2023-05-01T18:14:44.105Z,100939.78
2023-05-01T18:17:12.396Z,100947.38
2023-05-01T18:19:40.598Z,100955.50
2023-05-01T18:22:09.486Z,100949.53
2023-05-01T18:24:38.466Z,100954.91
2023-05-01T18:27:06.667Z,100951.88
2023-05-01T18:29:34.883Z,100951.09
2023-05-01T18:32:03.600Z,100947.09
2023-05-01T18:34:32.267Z,100951.97
2023-05-01T18:37:00.413Z,100947.09
2023-05-01T18:39:28.579Z,100942.22
2023-05-01T18:41:57.016Z,100948.13
2023-05-01T18:44:25.395Z,100934.38
2023-05-01T18:46:53.772Z,100938.56
2023-05-01T18:49:24.700Z,100930.25
2023-05-01T18:51:53.307Z,100934.25
2023-05-01T18:54:21.594Z,100930.88
2023-05-01T18:56:49.839Z,100935.03
2023-05-01T18:59:18.162Z,100927.97
2023-05-01T19:01:46.465Z,100926.38
2023-05-01T19:04:14.883Z,100923.53
2023-05-01T19:06:43.047Z,100922.91
2023-05-01T19:09:11.828Z,100926.75
2023-05-01T19:11:40.036Z,100922.16
2023-05-01T19:14:08.218Z,100916.53
2023-05-01T19:16:36.578Z,100920.59
2023-05-01T19:19:04.745Z,100915.69
2023-05-01T19:21:32.990Z,100913.38
2023-05-01T19:24:01.185Z,100913.78
2023-05-01T19:26:30.159Z,100913.25
2023-05-01T19:28:58.335Z,100903.88
2023-05-01T19:31:26.679Z,100901.94
2023-05-01T19:33:55.878Z,100906.97
2023-05-01T19:36:24.109Z,100897.44
2023-05-01T19:38:52.378Z,100907.47
2023-05-01T19:41:20.481Z,100893.38
2023-05-01T19:43:48.721Z,100894.16
2023-05-01T19:46:17.073Z,100887.91
2023-05-01T19:48:45.333Z,100892.63
2023-05-01T19:51:13.727Z,100889.81
2023-05-01T19:53:42.866Z,100883.56
2023-05-01T19:56:11.253Z,100885.94
2023-05-01T19:58:39.829Z,100884.56
2023-05-01T20:01:09.975Z,100868.34
2023-05-01T20:03:38.271Z,100869.06
2023-05-01T20:06:07.102Z,100874.47
2023-05-01T20:08:35.443Z,100861.88
2023-05-01T20:11:04.144Z,100863.34
2023-05-01T20:13:32.305Z,100858.22
2023-05-01T20:16:00.570Z,100857.25
2023-05-01T20:18:28.772Z,100858.75
2023-05-01T20:20:56.964Z,100853.03
2023-05-01T20:23:25.209Z,100849.44
2023-05-01T20:25:54.221Z,100850.81
2023-05-01T20:28:22.500Z,100848.72
2023-05-01T20:30:50.858Z,100850.41
2023-05-01T20:33:19.105Z,100863.63
2023-05-01T20:35:48.121Z,100852.84
2023-05-01T20:38:16.342Z,100859.75
2023-05-01T20:40:44.607Z,100843.38
2023-05-01T20:43:13.742Z,100858.38
2023-05-01T20:45:41.952Z,100854.03
2023-05-01T20:48:10.104Z,100853.91
2023-05-01T20:50:38.262Z,100860.28
2023-05-01T20:53:06.405Z,100855.88
2023-05-01T20:55:34.631Z,100855.78
2023-05-01T20:58:02.900Z,100857.25
2023-05-01T21:00:31.132Z,100852.53
2023-05-01T21:03:00.694Z,100852.38
2023-05-01T21:05:29.267Z,100849.56
2023-05-01T21:07:59.029Z,100857.72
2023-05-01T21:10:27.264Z,100855.03
2023-05-01T21:12:57.045Z,100854.19
2023-05-01T21:15:25.512Z,100862.28
2023-05-01T21:17:53.828Z,100860.13
2023-05-01T21:20:34.118Z,100870.22
2023-05-01T21:23:02.813Z,100863.06
2023-05-01T21:25:32.573Z,100861.28
2023-05-01T21:28:06.332Z,100860.34
2023-05-01T21:30:36.840Z,100855.00
2023-05-01T21:33:12.794Z,100856.97
2023-05-01T21:35:43.772Z,100857.09
2023-05-01T21:38:12.201Z,100848.78
2023-05-01T21:40:43.661Z,100843.63
2023-05-01T21:43:12.009Z,100848.75
2023-05-01T21:45:44.586Z,100850.34
2023-05-01T21:48:16.973Z,100848.53
2023-05-01T21:50:48.941Z,100856.16
2023-05-01T21:53:17.845Z,100840.09
2023-05-01T21:55:49.270Z,100842.09
2023-05-01T21:58:17.552Z,100841.25
2023-05-01T22:00:47.894Z,100843.81
2023-05-01T22:03:18.938Z,100833.38
2023-05-01T22:05:47.597Z,100833.91
2023-05-01T22:08:15.753Z,100840.00
2023-05-01T22:10:46.194Z,100829.72
2023-05-01T22:13:14.375Z,100834.66
2023-05-01T22:15:42.675Z,100821.81
2023-05-01T22:18:11.055Z,100813.88
2023-05-01T22:20:39.269Z,100813.75
2023-05-01T22:23:08.327Z,100805.97
2023-05-01T22:25:36.480Z,100801.00
2023-05-01T22:28:06.465Z,100807.81
2023-05-01T22:30:35.663Z,100800.03
2023-05-01T22:33:04.206Z,100806.38
2023-05-01T22:35:32.550Z,100802.63
2023-05-01T22:38:00.678Z,100802.28
2023-05-01T22:40:29.976Z,100794.75
2023-05-01T22:42:58.151Z,100802.13
2023-05-01T22:45:26.580Z,100792.91
2023-05-01T22:47:54.836Z,100789.22
2023-05-01T22:50:23.071Z,100789.66
2023-05-01T22:52:51.331Z,100786.59
2023-05-01T22:55:19.494Z,100794.88
2023-05-01T22:57:48.066Z,100794.25
2023-05-01T23:00:16.882Z,100796.44
2023-05-01T23:02:45.557Z,100795.13
2023-05-01T23:05:13.855Z,100792.28
2023-05-01T23:07:42.299Z,100778.66
2023-05-01T23:10:11.260Z,100781.94
2023-05-01T23:12:44.298Z,100785.22
2023-05-01T23:15:17.763Z,100788.22
2023-05-01T23:17:47.425Z,100795.56
2023-05-01T23:20:24.389Z,100779.78
2023-05-01T23:22:52.953Z,100783.16
2023-05-01T23:25:27.670Z,100785.56
2023-05-01T23:27:57.686Z,100786.91
2023-05-01T23:30:26.030Z,100785.50
2023-05-01T23:33:00.112Z,100782.38
2023-05-01T23:35:28.395Z,100788.41
2023-05-01T23:37:56.964Z,100789.28
2023-05-01T23:40:25.498Z,100783.50
2023-05-01T23:42:53.866Z,100792.00
2023-05-01T23:45:22.036Z,100782.28
2023-05-01T23:47:50.248Z,100787.03
2023-05-01T23:50:18.587Z,100791.97
2023-05-01T23:52:47.484Z,100795.88
2023-05-01T23:55:15.713Z,100792.69
2023-05-01T23:57:43.886Z,100803.28
